Time;durP1;ratioP1;P1;durP2;ratioP2;P2;SDS_P1;SDS_P2;PMS_P1;PMS_P2;Temp;Humidity;BMP_temperature;BMP_pressure;BME280_temperature;BME280_humidity;BME280_pressure;Samples;Min_cycle;Max_cycle;Signal;HPM_P1;HPM_P2
2022/06/19 00:01:08;;;;;;;80.05;74.97;;;20.90;99.90;;;;;;4994432;28;20185;-77
2022/06/19 00:03:41;;;;;;;64.13;60.17;;;20.90;99.90;;;;;;4975779;28;20184;-77
2022/06/19 00:06:08;;;;;;;60.53;56.85;;;20.90;99.90;;;;;;4972328;28;20215;-77
2022/06/19 00:08:34;;;;;;;48.38;45.13;;;20.80;99.90;;;;;;4970472;28;20571;-77
2022/06/19 00:11:00;;;;;;;61.53;57.63;;;20.90;99.90;;;;;;4971544;28;20260;-79
2022/06/19 00:13:26;;;;;;;47.47;44.53;;;20.90;99.90;;;;;;4972867;28;20665;-77
2022/06/19 00:15:53;;;;;;;45.67;42.08;;;21.00;99.90;;;;;;4974608;28;20331;-78
2022/06/19 00:18:19;;;;;;;47.40;44.10;;;20.90;99.90;;;;;;4982373;28;20201;-78
2022/06/19 00:20:45;;;;;;;37.38;34.40;;;21.00;99.90;;;;;;4982447;28;20188;-78
2022/06/19 00:23:10;;;;;;;39.63;36.30;;;21.10;99.90;;;;;;4978938;28;20212;-78
2022/06/19 00:25:37;;;;;;;37.53;34.88;;;21.10;99.90;;;;;;4983146;28;20460;-78
2022/06/19 00:28:04;;;;;;;38.03;34.90;;;21.20;99.90;;;;;;4976635;28;20653;-77
2022/06/19 00:30:30;;;;;;;35.92;33.35;;;21.20;99.90;;;;;;4986000;28;20278;-77
2022/06/19 00:32:58;;;;;;;32.67;30.27;;;21.10;99.90;;;;;;4972101;28;20253;-77
2022/06/19 00:35:26;;;;;;;34.28;31.65;;;21.00;99.90;;;;;;4959206;28;20210;-78
2022/06/19 00:37:53;;;;;;;33.85;31.50;;;21.00;99.90;;;;;;4958572;28;20240;-78
2022/06/19 00:40:20;;;;;;;34.92;32.08;;;20.90;99.90;;;;;;4956712;29;20249;-78
2022/06/19 00:42:47;;;;;;;45.08;41.80;;;20.80;99.90;;;;;;4975395;28;20192;-78
2022/06/19 00:45:34;;;;;;;47.22;43.63;;;20.80;99.90;;;;;;4958510;28;20228;-78
2022/06/19 00:48:14;;;;;;;36.53;34.15;;;20.80;99.90;;;;;;4957332;28;20244;-78
2022/06/19 00:50:41;;;;;;;41.75;39.03;;;20.80;99.90;;;;;;4974747;28;20212;-78
2022/06/19 00:53:12;;;;;;;36.15;33.58;;;20.80;99.90;;;;;;4981725;28;20674;-78
2022/06/19 00:55:41;;;;;;;35.45;32.85;;;20.70;99.90;;;;;;4980744;28;20200;-78
2022/06/19 00:58:22;;;;;;;31.85;29.05;;;20.80;99.90;;;;;;4983590;28;20173;-78
2022/06/19 01:00:54;;;;;;;27.60;25.65;;;20.80;99.90;;;;;;4993397;28;20196;-78
2022/06/19 01:03:28;;;;;;;29.92;27.73;;;20.80;99.90;;;;;;4991337;28;20189;-77
2022/06/19 01:05:54;;;;;;;25.00;23.35;;;20.70;99.90;;;;;;5002903;28;20216;-78
2022/06/19 01:08:20;;;;;;;28.02;26.25;;;20.70;99.90;;;;;;4984261;28;20184;-78
2022/06/19 01:10:50;;;;;;;23.92;22.23;;;20.80;99.90;;;;;;4986269;28;20188;-78
2022/06/19 01:13:19;;;;;;;22.73;20.83;;;20.80;99.90;;;;;;4980709;28;20185;-78
2022/06/19 01:15:45;;;;;;;25.60;23.67;;;20.80;99.90;;;;;;4981174;28;20681;-78
2022/06/19 01:18:13;;;;;;;22.83;20.73;;;20.80;99.90;;;;;;4979218;28;20270;-78
2022/06/19 01:20:41;;;;;;;22.85;20.92;;;20.80;99.90;;;;;;4980198;28;20187;-78
2022/06/19 01:23:09;;;;;;;21.60;19.70;;;20.80;99.90;;;;;;4981294;28;20260;-78
2022/06/19 01:25:38;;;;;;;19.35;17.65;;;20.70;99.90;;;;;;4983399;28;20628;-78
2022/06/19 01:30:53;;;;;;;21.00;19.38;;;20.60;99.90;;;;;;4995068;28;20223;-78
2022/06/19 01:33:27;;;;;;;20.38;18.60;;;20.60;99.90;;;;;;4989332;28;20177;-77
2022/06/19 01:35:56;;;;;;;20.20;18.10;;;20.60;99.90;;;;;;5000548;28;20240;-77
2022/06/19 01:38:23;;;;;;;26.77;16.48;;;20.50;99.90;;;;;;4997319;28;20199;-78
2022/06/19 01:40:57;;;;;;;16.23;13.88;;;20.50;99.90;;;;;;4988247;28;20275;-78
2022/06/19 01:43:23;;;;;;;14.15;12.95;;;20.50;99.90;;;;;;4990375;28;20185;-78
2022/06/19 01:45:52;;;;;;;24.50;22.42;;;20.30;99.90;;;;;;4983097;28;20275;-78
2022/06/19 01:48:23;;;;;;;120.40;113.90;;;20.10;99.90;;;;;;4982989;28;20216;-78
2022/06/19 01:50:50;;;;;;;120.38;113.95;;;20.10;99.90;;;;;;4982169;28;20645;-78
2022/06/19 01:53:50;;;;;;;136.93;128.40;;;20.00;99.90;;;;;;4978016;28;20556;-78
2022/06/19 01:56:16;;;;;;;130.20;123.25;;;20.00;99.90;;;;;;4972836;28;20596;-78
2022/06/19 01:58:49;;;;;;;143.57;135.50;;;19.90;99.90;;;;;;4979088;28;20181;-78
2022/06/19 02:01:15;;;;;;;66.50;62.30;;;19.80;99.90;;;;;;4979092;28;20192;-78
2022/06/19 02:03:43;;;;;;;33.17;31.13;;;19.70;99.90;;;;;;4978900;28;20185;-77
2022/06/19 02:06:12;;;;;;;25.70;23.77;;;19.70;99.90;;;;;;4976077;28;20719;-77
2022/06/19 02:08:38;;;;;;;25.13;23.27;;;19.60;99.90;;;;;;4978334;28;20576;-78
2022/06/19 02:11:06;;;;;;;46.72;43.63;;;19.50;99.90;;;;;;4980558;28;20676;-78
2022/06/19 02:13:34;;;;;;;73.35;69.30;;;19.40;99.90;;;;;;4981669;28;20185;-77
2022/06/19 02:16:04;;;;;;;68.10;63.88;;;19.30;99.90;;;;;;4977934;28;20216;-77
2022/06/19 02:18:35;;;;;;;50.00;46.92;;;19.20;99.90;;;;;;4975455;28;20291;-77
2022/06/19 02:21:01;;;;;;;41.40;38.60;;;19.10;99.90;;;;;;4979923;28;20193;-77
2022/06/19 02:23:35;;;;;;;27.67;25.77;;;19.00;99.90;;;;;;4976636;28;20189;-78
2022/06/19 02:26:04;;;;;;;29.58;27.58;;;19.10;99.90;;;;;;4976902;28;20231;-77
2022/06/19 02:28:31;;;;;;;33.73;31.33;;;19.00;99.90;;;;;;4979138;28;20276;-77
2022/06/19 02:30:57;;;;;;;75.17;70.93;;;18.90;99.90;;;;;;4974324;28;20267;-77
2022/06/19 02:33:28;;;;;;;75.90;71.13;;;18.90;99.90;;;;;;4977438;28;20181;-78
2022/06/19 02:35:54;;;;;;;75.20;71.00;;;18.90;99.90;;;;;;4979508;28;20209;-78
2022/06/19 02:38:21;;;;;;;62.97;58.88;;;18.90;99.90;;;;;;4983729;28;20186;-77
2022/06/19 02:40:56;;;;;;;47.78;44.55;;;18.80;99.90;;;;;;4988968;28;20289;-77
2022/06/19 02:43:31;;;;;;;27.77;25.77;;;18.80;99.90;;;;;;4983028;28;20177;-78
2022/06/19 02:45:57;;;;;;;21.92;20.45;;;18.90;99.90;;;;;;4986463;28;20317;-78
2022/06/19 02:48:24;;;;;;;35.60;33.40;;;18.90;99.90;;;;;;4981733;28;20184;-78
2022/06/19 02:50:50;;;;;;;35.13;32.70;;;18.80;99.90;;;;;;4984539;28;20195;-78
2022/06/19 02:53:17;;;;;;;52.38;48.28;;;18.90;99.90;;;;;;4981888;28;20184;-77
2022/06/19 02:55:43;;;;;;;38.17;35.10;;;18.90;99.90;;;;;;4973827;28;20291;-78
2022/06/19 02:58:09;;;;;;;45.47;41.57;;;18.80;99.90;;;;;;4973797;28;20280;-78
2022/06/19 03:00:36;;;;;;;17.65;11.88;;;18.80;99.90;;;;;;4977138;28;20188;-78
2022/06/19 03:03:11;;;;;;;34.97;32.63;;;18.80;99.90;;;;;;4976860;28;20185;-77
2022/06/19 03:05:37;;;;;;;46.57;35.53;;;18.80;99.90;;;;;;4956642;28;20213;-78
2022/06/19 03:08:03;;;;;;;41.73;38.83;;;18.70;99.90;;;;;;4957113;29;20186;-77
2022/06/19 03:10:30;;;;;;;30.53;27.87;;;18.70;99.90;;;;;;4958888;28;20182;-77
2022/06/19 03:12:58;;;;;;;19.70;18.20;;;18.70;99.90;;;;;;4990653;28;20244;-77
2022/06/19 03:15:24;;;;;;;15.95;14.32;;;18.60;99.90;;;;;;4998277;28;20256;-77
2022/06/19 03:17:50;;;;;;;18.73;17.17;;;18.60;99.90;;;;;;4981185;28;20601;-78
2022/06/19 03:20:19;;;;;;;20.63;19.00;;;18.60;99.90;;;;;;4974512;28;20189;-77
2022/06/19 03:22:45;;;;;;;17.60;15.67;;;18.60;99.90;;;;;;4969645;28;20178;-77
2022/06/19 03:25:11;;;;;;;16.50;12.30;;;18.50;99.90;;;;;;4953873;28;20292;-77
2022/06/19 03:27:37;;;;;;;9.93;9.03;;;18.40;99.90;;;;;;4956565;29;20316;-78
2022/06/19 03:30:04;;;;;;;12.63;11.63;;;18.40;99.90;;;;;;4958874;29;20178;-78
2022/06/19 03:32:30;;;;;;;18.13;16.40;;;18.40;99.90;;;;;;4964058;28;20253;-78
2022/06/19 03:34:56;;;;;;;26.40;23.60;;;18.30;99.90;;;;;;4961422;28;20182;-78
2022/06/19 03:37:22;;;;;;;31.80;29.37;;;18.30;99.90;;;;;;4959475;28;20192;-77
2022/06/19 03:39:48;;;;;;;34.03;30.80;;;18.30;99.90;;;;;;4960049;28;20280;-77
2022/06/19 03:42:16;;;;;;;47.13;44.47;;;18.40;99.90;;;;;;4978593;28;20196;-77
2022/06/19 03:44:42;;;;;;;63.03;58.93;;;18.30;99.90;;;;;;4998418;28;20207;-78
2022/06/19 03:47:08;;;;;;;63.03;59.43;;;18.40;99.90;;;;;;4995308;28;20233;-78
2022/06/19 03:49:34;;;;;;;45.90;42.90;;;18.50;99.90;;;;;;4993437;28;20187;-78
2022/06/19 03:52:00;;;;;;;40.73;37.97;;;18.60;99.90;;;;;;4993750;28;20253;-77
2022/06/19 03:54:26;;;;;;;36.73;34.50;;;18.70;99.90;;;;;;4986367;28;20220;-77
2022/06/19 03:56:52;;;;;;;23.67;20.40;;;18.80;99.90;;;;;;4985614;28;20782;-77
2022/06/19 03:59:18;;;;;;;14.00;12.60;;;18.80;99.90;;;;;;4979560;28;20508;-78
2022/06/19 04:01:44;;;;;;;10.48;8.25;;;18.80;99.90;;;;;;4978626;28;20173;-78
2022/06/19 04:04:11;;;;;;;22.37;13.73;;;18.90;99.90;;;;;;4997038;28;20188;-77
2022/06/19 04:06:40;;;;;;;15.77;12.20;;;18.90;99.90;;;;;;4989707;28;20213;-77
2022/06/19 04:09:10;;;;;;;33.70;31.33;;;18.90;99.90;;;;;;4987449;28;20181;-77
2022/06/19 04:11:35;;;;;;;50.30;47.17;;;19.00;99.90;;;;;;4982197;28;20232;-78
2022/06/19 04:14:02;;;;;;;57.60;53.77;;;19.10;99.90;;;;;;4978639;28;20193;-78
2022/06/19 04:16:30;;;;;;;53.93;50.50;;;19.20;99.90;;;;;;4979506;28;20211;-78
2022/06/19 04:18:58;;;;;;;13.35;11.07;;;19.30;99.90;;;;;;4979107;28;20188;-78
2022/06/19 04:21:26;;;;;;;9.30;7.32;;;19.40;99.90;;;;;;4979297;28;20212;-78
2022/06/19 04:23:56;;;;;;;17.10;10.32;;;19.30;99.90;;;;;;4977798;28;20180;-78
2022/06/19 04:26:24;;;;;;;12.73;10.17;;;19.30;99.90;;;;;;4976965;28;20246;-78
2022/06/19 04:28:50;;;;;;;13.50;7.95;;;19.40;99.90;;;;;;4975163;28;20264;-78
2022/06/19 04:31:16;;;;;;;15.57;9.30;;;19.50;99.90;;;;;;4976412;28;20207;-78
2022/06/19 04:33:43;;;;;;;14.77;9.68;;;19.70;99.90;;;;;;4976630;28;20264;-78
2022/06/19 04:36:12;;;;;;;18.85;17.02;;;19.80;99.90;;;;;;4976620;28;20205;-78
2022/06/19 04:38:39;;;;;;;13.32;12.20;;;19.90;99.90;;;;;;4975364;28;20185;-78
2022/06/19 04:41:05;;;;;;;10.93;8.20;;;20.00;99.90;;;;;;4994967;28;20183;-78
2022/06/19 04:43:31;;;;;;;22.90;20.98;;;20.20;99.90;;;;;;4978310;28;20189;-78
2022/06/19 04:46:05;;;;;;;51.53;47.75;;;20.30;99.90;;;;;;5004900;23;20227;-79
2022/06/19 04:48:32;;;;;;;58.40;54.55;;;20.50;99.90;;;;;;4991252;28;20263;-76
2022/06/19 04:50:59;;;;;;;18.60;15.05;;;20.60;99.90;;;;;;4991731;28;20200;-79
2022/06/19 04:53:25;;;;;;;8.50;6.05;;;20.80;99.90;;;;;;4992052;28;20191;-79
2022/06/19 04:55:52;;;;;;;13.13;11.85;;;21.00;99.90;;;;;;4991459;28;20582;-79
2022/06/19 04:58:22;;;;;;;15.02;10.57;;;21.10;99.90;;;;;;4989370;28;20187;-75
2022/06/19 05:00:50;;;;;;;13.90;11.75;;;21.30;99.90;;;;;;4992099;28;20565;-76
2022/06/19 05:03:16;;;;;;;17.55;16.23;;;21.50;99.90;;;;;;4988076;28;20195;-77
2022/06/19 05:05:42;;;;;;;29.63;26.95;;;21.60;99.90;;;;;;4988172;28;20230;-77
2022/06/19 05:08:08;;;;;;;97.35;91.90;;;21.80;99.90;;;;;;4990126;28;20549;-77
2022/06/19 05:10:34;;;;;;;91.75;86.15;;;22.20;99.90;;;;;;4979444;28;20272;-76
2022/06/19 05:13:00;;;;;;;20.98;19.05;;;22.60;99.90;;;;;;4979142;28;20184;-77
2022/06/19 05:15:26;;;;;;;11.57;8.15;;;23.00;99.90;;;;;;4991056;28;20215;-77
2022/06/19 05:17:51;;;;;;;15.85;8.05;;;23.40;99.90;;;;;;4990231;28;20211;-77
2022/06/19 05:20:17;;;;;;;28.15;26.33;;;23.80;99.90;;;;;;4990670;28;20184;-77
2022/06/19 05:22:43;;;;;;;28.20;26.00;;;24.40;99.90;;;;;;4990724;28;20204;-77
2022/06/19 05:25:10;;;;;;;35.00;32.53;;;24.80;99.90;;;;;;4989427;28;20199;-77
2022/06/19 05:27:40;;;;;;;113.25;106.60;;;25.20;99.90;;;;;;4989185;28;20246;-78
2022/06/19 05:30:08;;;;;;;94.30;88.70;;;25.70;99.90;;;;;;4990004;28;20560;-77
2022/06/19 05:32:33;;;;;;;43.08;40.05;;;26.00;99.90;;;;;;4989531;28;20326;-77
2022/06/19 05:34:59;;;;;;;81.28;76.68;;;26.20;99.90;;;;;;4990204;28;20702;-77
2022/06/19 05:37:25;;;;;;;99.43;94.03;;;26.50;99.90;;;;;;4989921;28;20208;-77
2022/06/19 05:39:51;;;;;;;109.95;103.88;;;26.80;99.90;;;;;;4992991;28;20676;-77
2022/06/19 05:42:17;;;;;;;51.63;48.45;;;26.90;99.90;;;;;;4992377;28;20184;-77
2022/06/19 05:44:43;;;;;;;31.25;28.65;;;27.20;99.90;;;;;;4994053;28;20187;-78
2022/06/19 05:47:10;;;;;;;14.82;13.15;;;27.50;99.90;;;;;;4992596;28;20692;-78
2022/06/19 05:49:35;;;;;;;17.13;8.77;;;27.80;99.20;;;;;;4992764;28;20185;-77
2022/06/19 05:52:02;;;;;;;11.23;7.97;;;28.00;97.70;;;;;;4998194;28;20180;-76
2022/06/19 05:54:29;;;;;;;13.18;7.25;;;28.20;97.20;;;;;;4993616;28;20563;-77
2022/06/19 05:56:55;;;;;;;8.60;5.57;;;28.60;97.10;;;;;;4991804;28;20218;-77
2022/06/19 05:59:21;;;;;;;10.90;5.40;;;28.90;95.20;;;;;;4993912;28;20707;-76
2022/06/19 06:01:47;;;;;;;7.85;5.50;;;28.90;94.20;;;;;;4993961;28;20287;-77
2022/06/19 06:04:13;;;;;;;11.07;6.88;;;28.90;93.30;;;;;;4992987;28;20569;-77
2022/06/19 06:06:40;;;;;;;14.75;6.43;;;29.10;92.60;;;;;;4992235;28;20222;-77
2022/06/19 06:09:07;;;;;;;11.63;7.80;;;29.30;91.80;;;;;;4991961;28;20649;-77
2022/06/19 06:11:32;;;;;;;18.80;16.98;;;29.50;91.90;;;;;;4993222;28;20177;-77
2022/06/19 06:13:58;;;;;;;19.02;17.27;;;29.80;90.80;;;;;;4992474;28;20272;-77
2022/06/19 06:16:25;;;;;;;24.00;21.90;;;30.00;90.60;;;;;;4993497;28;20319;-77
2022/06/19 06:18:51;;;;;;;24.05;21.88;;;30.10;90.20;;;;;;4991087;28;20247;-76
2022/06/19 06:21:21;;;;;;;25.75;23.75;;;30.50;88.30;;;;;;4993537;28;20184;-76
2022/06/19 06:23:47;;;;;;;31.70;29.15;;;30.80;88.20;;;;;;4993776;28;20184;-78
2022/06/19 06:26:25;;;;;;;35.38;32.92;;;31.30;87.70;;;;;;4993342;28;20764;-77
2022/06/19 06:28:53;;;;;;;39.92;36.95;;;31.40;85.20;;;;;;4992584;28;20185;-78
2022/06/19 06:31:19;;;;;;;44.85;41.75;;;31.60;84.40;;;;;;4993444;28;20223;-78
2022/06/19 06:33:46;;;;;;;123.82;116.68;;;31.80;83.40;;;;;;4992839;28;20184;-78
2022/06/19 06:36:12;;;;;;;69.10;64.90;;;31.90;80.90;;;;;;4992052;28;20592;-77
2022/06/19 06:38:39;;;;;;;102.07;96.18;;;32.00;82.50;;;;;;4990777;28;20184;-77
2022/06/19 06:41:07;;;;;;;183.20;173.95;;;32.00;83.80;;;;;;4992046;28;20319;-78
2022/06/19 06:43:39;;;;;;;197.77;186.95;;;32.30;80.80;;;;;;4993147;28;20665;-78
2022/06/19 06:46:13;;;;;;;225.63;214.02;;;32.40;81.50;;;;;;4993505;28;20263;-77
2022/06/19 06:48:40;;;;;;;259.52;245.98;;;32.80;78.10;;;;;;4993097;28;20194;-77
2022/06/19 06:51:07;;;;;;;295.23;279.90;;;33.00;75.40;;;;;;4991710;28;20224;-77
2022/06/19 06:53:33;;;;;;;241.00;227.63;;;33.10;75.20;;;;;;4993064;28;20189;-77
2022/06/19 06:55:59;;;;;;;257.63;244.30;;;33.20;72.00;;;;;;4992190;28;20739;-78
2022/06/19 06:58:25;;;;;;;207.65;196.20;;;33.10;70.20;;;;;;4991691;28;20196;-77
2022/06/19 07:00:51;;;;;;;227.88;216.00;;;33.10;70.20;;;;;;4991599;28;20263;-76
2022/06/19 07:03:17;;;;;;;258.90;245.32;;;33.20;71.40;;;;;;4992008;28;20184;-77
2022/06/19 07:05:42;;;;;;;239.48;226.63;;;33.20;71.20;;;;;;4990701;28;20231;-77
2022/06/19 07:08:08;;;;;;;204.00;192.98;;;33.50;70.90;;;;;;4989126;28;20206;-78
2022/06/19 07:10:34;;;;;;;212.13;201.15;;;33.80;70.60;;;;;;4992146;28;20284;-78
2022/06/19 07:13:00;;;;;;;149.77;141.18;;;34.00;69.80;;;;;;4993189;28;20212;-77
2022/06/19 07:15:26;;;;;;;158.30;148.93;;;34.20;68.60;;;;;;4992330;28;20188;-77
2022/06/19 07:17:52;;;;;;;185.68;175.90;;;34.30;68.90;;;;;;4991407;28;20204;-77
2022/06/19 07:20:18;;;;;;;203.23;192.23;;;34.50;68.40;;;;;;4993368;28;20645;-78
2022/06/19 07:22:44;;;;;;;265.67;251.23;;;34.80;66.20;;;;;;4995470;28;20823;-79
2022/06/19 07:25:19;;;;;;;252.32;238.70;;;34.80;65.20;;;;;;4994776;28;20191;-80
2022/06/19 07:27:46;;;;;;;256.38;242.82;;;34.90;64.10;;;;;;4996180;28;20179;-78
2022/06/19 07:30:22;;;;;;;271.75;256.40;;;34.90;62.70;;;;;;5010907;28;20164;-78
2022/06/19 07:32:48;;;;;;;298.45;281.85;;;35.10;63.00;;;;;;5003936;28;20629;-77
2022/06/19 07:35:14;;;;;;;317.75;300.45;;;35.30;62.20;;;;;;4996804;28;20180;-78
2022/06/19 07:37:40;;;;;;;356.63;336.88;;;35.60;59.70;;;;;;4995805;28;20346;-78
2022/06/19 07:40:07;;;;;;;382.25;360.90;;;35.50;59.30;;;;;;4996312;28;20190;-79
2022/06/19 07:42:33;;;;;;;359.50;339.27;;;34.50;61.90;;;;;;4992848;28;20184;-78
2022/06/19 07:45:00;;;;;;;213.20;201.43;;;33.90;64.10;;;;;;4994922;28;20263;-79
2022/06/19 07:50:10;;;;;;;205.00;193.65;;;33.60;64.00;;;;;;4994979;28;20177;-78
2022/06/19 07:52:38;;;;;;;226.90;213.93;;;34.20;63.10;;;;;;4994801;28;20181;-78
2022/06/19 07:55:05;;;;;;;260.27;246.07;;;34.60;63.30;;;;;;4992775;28;21217;-80
2022/06/19 07:57:31;;;;;;;276.70;261.40;;;34.80;63.50;;;;;;5001960;28;20196;-81
2022/06/19 07:59:57;;;;;;;276.00;260.83;;;35.10;61.70;;;;;;5005438;28;20264;-84
2022/06/19 08:02:25;;;;;;;324.75;306.95;;;35.40;60.90;;;;;;5001930;28;20176;-83
2022/06/19 08:04:52;;;;;;;352.67;333.10;;;35.70;60.00;;;;;;4998458;28;20177;-82
2022/06/19 08:07:18;;;;;;;343.33;324.38;;;35.70;59.30;;;;;;5015890;28;20208;-82
2022/06/19 08:09:46;;;;;;;344.95;326.23;;;35.90;59.20;;;;;;5006836;28;20187;-84
2022/06/19 08:12:12;;;;;;;323.92;305.48;;;36.10;58.80;;;;;;4994370;28;20184;-84
2022/06/19 08:14:38;;;;;;;319.33;301.40;;;36.10;58.90;;;;;;4991430;28;20224;-85
2022/06/19 08:17:05;;;;;;;318.58;300.98;;;36.30;58.70;;;;;;4979584;28;20247;-85
2022/06/19 08:19:31;;;;;;;288.85;272.92;;;36.20;58.30;;;;;;4998933;28;20176;-84
2022/06/19 08:21:57;;;;;;;322.45;304.42;;;36.10;57.90;;;;;;4998984;28;20180;-85
2022/06/19 08:24:22;;;;;;;311.60;294.10;;;36.00;58.30;;;;;;5000921;28;20188;-85
2022/06/19 08:26:50;;;;;;;303.70;286.45;;;36.20;58.50;;;;;;5001285;28;20231;-85
2022/06/19 08:29:16;;;;;;;232.52;219.82;;;36.70;57.90;;;;;;5001838;28;20184;-85
2022/06/19 08:31:42;;;;;;;178.07;168.57;;;36.90;57.50;;;;;;5001046;28;20669;-85
2022/06/19 08:34:07;;;;;;;82.15;77.05;;;37.20;57.20;;;;;;5003229;28;20212;-86
2022/06/19 08:36:35;;;;;;;73.63;68.38;;;37.00;55.50;;;;;;5002173;28;20196;-84
2022/06/19 08:39:06;;;;;;;70.68;65.75;;;36.90;55.20;;;;;;4995708;28;20188;-82
2022/06/19 08:41:40;;;;;;;56.85;51.10;;;36.90;55.30;;;;;;4993876;28;20191;-81
2022/06/19 08:44:45;;;;;;;106.85;100.38;;;36.80;55.00;;;;;;4997867;28;20183;-80
2022/06/19 08:47:29;;;;;;;99.47;93.25;;;36.60;56.30;;;;;;4998342;28;20218;-82
2022/06/19 08:50:34;;;;;;;174.15;164.40;;;36.80;54.90;;;;;;4982568;28;20188;-79
2022/06/19 08:53:15;;;;;;;201.98;191.32;;;36.50;55.30;;;;;;4974979;28;20219;-80
2022/06/19 08:55:50;;;;;;;164.80;155.93;;;36.50;55.20;;;;;;4975777;28;20278;-79
2022/06/19 08:58:31;;;;;;;116.88;110.22;;;36.80;55.10;;;;;;4972035;28;20216;-78
2022/06/19 09:01:24;;;;;;;172.57;162.63;;;37.00;55.60;;;;;;4995667;28;20195;-80
2022/06/19 09:07:49;;;;;;;95.63;90.32;;;37.40;53.50;;;;;;5009503;28;20208;-79
2022/06/19 09:10:43;;;;;;;80.72;75.28;;;37.70;54.90;;;;;;5015065;28;20168;-77
2022/06/19 09:13:17;;;;;;;45.55;42.50;;;38.00;54.30;;;;;;4994467;28;20187;-77
2022/06/19 09:16:08;;;;;;;30.27;27.50;;;38.00;53.50;;;;;;4993948;28;20219;-77
2022/06/19 09:18:55;;;;;;;30.90;28.20;;;38.30;53.50;;;;;;4993744;28;20664;-78
2022/06/19 09:21:31;;;;;;;16.02;13.70;;;38.70;52.80;;;;;;4995361;28;20181;-79
2022/06/19 09:24:19;;;;;;;15.18;12.77;;;38.70;52.10;;;;;;4995333;28;20187;-78
2022/06/19 09:26:54;;;;;;;15.40;11.35;;;38.50;51.70;;;;;;4995719;28;20212;-76
2022/06/19 09:29:26;;;;;;;17.85;12.00;;;38.50;51.70;;;;;;4996788;28;20680;-75
2022/06/19 09:32:00;;;;;;;25.17;15.07;;;38.20;51.80;;;;;;4996753;28;20303;-78
2022/06/19 09:34:57;;;;;;;20.45;13.05;;;38.70;52.80;;;;;;4998093;28;20180;-80
2022/06/19 09:37:38;;;;;;;19.58;11.05;;;38.70;51.60;;;;;;4993142;28;20696;-77
2022/06/19 09:40:08;;;;;;;18.40;10.15;;;38.60;50.40;;;;;;4993540;28;20184;-77
2022/06/19 09:42:40;;;;;;;16.52;12.50;;;38.60;51.50;;;;;;4994589;28;20207;-78
2022/06/19 09:45:21;;;;;;;22.80;14.30;;;39.20;51.10;;;;;;4995402;28;20237;-79
2022/06/19 09:48:00;;;;;;;20.90;16.27;;;39.30;50.20;;;;;;4995686;28;20244;-80
2022/06/19 09:50:48;;;;;;;16.83;13.98;;;39.20;51.70;;;;;;4995872;28;20203;-79
2022/06/19 09:53:42;;;;;;;15.93;13.95;;;39.20;50.60;;;;;;5008207;28;20180;-81
2022/06/19 09:56:31;;;;;;;15.23;11.20;;;39.40;50.00;;;;;;5000759;28;20224;-82
2022/06/19 09:59:39;;;;;;;12.00;10.65;;;39.90;50.00;;;;;;5000253;28;20180;-80
2022/06/19 10:02:12;;;;;;;17.00;10.63;;;40.10;49.00;;;;;;4986962;28;20192;-78
2022/06/19 10:04:44;;;;;;;16.60;9.32;;;40.40;48.30;;;;;;4996357;28;20181;-79
2022/06/19 10:07:17;;;;;;;19.08;10.07;;;40.50;47.60;;;;;;4992512;28;20219;-80
2022/06/19 10:09:56;;;;;;;16.15;11.75;;;40.00;49.00;;;;;;4974985;28;20223;-77
2022/06/19 10:12:48;;;;;;;18.52;11.32;;;39.80;48.40;;;;;;4974883;28;20218;-77
2022/06/19 10:15:24;;;;;;;12.68;8.90;;;40.00;45.20;;;;;;4990903;28;20529;-77
2022/06/19 10:18:14;;;;;;;17.58;10.57;;;40.10;48.00;;;;;;4993865;28;20203;-77
2022/06/19 10:20:50;;;;;;;13.30;8.85;;;40.20;43.60;;;;;;5003874;28;20227;-78
2022/06/19 10:23:39;;;;;;;15.40;10.55;;;40.00;41.10;;;;;;4994239;28;20184;-80
2022/06/19 10:26:19;;;;;;;18.58;11.50;;;39.80;40.60;;;;;;4993598;28;20204;-79
2022/06/19 10:29:02;;;;;;;14.00;9.75;;;39.70;40.60;;;;;;4996105;28;20188;-80
2022/06/19 10:32:18;;;;;;;13.80;8.85;;;39.90;39.80;;;;;;4994886;28;20192;-83
2022/06/19 10:34:47;;;;;;;17.15;10.50;;;40.20;40.00;;;;;;4977510;28;20212;-81
2022/06/19 10:37:42;;;;;;;12.32;9.68;;;39.70;40.10;;;;;;4998193;28;20215;-82
2022/06/19 10:40:42;;;;;;;13.10;9.70;;;39.30;39.50;;;;;;4980024;28;20184;-81
2022/06/19 10:43:19;;;;;;;15.95;13.43;;;39.10;40.40;;;;;;4990712;28;20197;-81
2022/06/19 10:45:53;;;;;;;22.50;13.10;;;39.50;40.50;;;;;;4988577;28;20234;-78
2022/06/19 10:48:27;;;;;;;15.60;9.07;;;39.90;40.60;;;;;;5020992;22;20824;-80
2022/06/19 10:51:13;;;;;;;14.73;8.75;;;40.20;38.70;;;;;;5016504;28;20823;-79
2022/06/19 10:54:24;;;;;;;22.00;9.65;;;40.50;39.30;;;;;;5013068;28;20194;-79
2022/06/19 10:57:12;;;;;;;21.10;10.23;;;39.80;38.80;;;;;;5013629;28;20227;-85
2022/06/19 10:59:38;;;;;;;16.23;8.85;;;39.70;39.10;;;;;;4997515;28;20201;-80
2022/06/19 11:05:16;;;;;;;17.67;9.30;;;40.50;38.80;;;;;;5011767;28;20187;-83
2022/06/19 11:07:42;;;;;;;17.48;9.40;;;40.50;37.80;;;;;;5008822;28;20208;-82
2022/06/19 11:10:45;;;;;;;15.30;8.85;;;39.90;38.10;;;;;;5002147;28;20608;-78
2022/06/19 11:13:11;;;;;;;20.52;10.75;;;39.80;38.30;;;;;;5003805;28;20211;-79
2022/06/19 11:15:44;;;;;;;16.27;9.65;;;39.70;39.00;;;;;;4999474;28;20199;-78
2022/06/19 11:18:13;;;;;;;13.57;9.80;;;39.90;38.90;;;;;;4994225;28;20227;-81
2022/06/19 11:20:42;;;;;;;16.98;11.90;;;40.10;38.10;;;;;;4994321;28;20183;-80
2022/06/19 11:23:26;;;;;;;17.20;12.70;;;40.30;38.30;;;;;;4993961;28;20649;-80
2022/06/19 11:26:07;;;;;;;16.55;12.45;;;40.50;38.50;;;;;;4998258;28;20255;-86
2022/06/19 11:28:55;;;;;;;12.50;7.78;;;41.10;37.50;;;;;;4998194;28;20196;-84
2022/06/19 11:31:25;;;;;;;13.77;9.43;;;41.10;36.40;;;;;;4997388;28;20185;-86
2022/06/19 11:34:00;;;;;;;15.15;8.23;;;41.30;36.90;;;;;;4998172;28;20208;-84
2022/06/19 11:36:32;;;;;;;14.73;8.65;;;41.30;35.80;;;;;;4998976;28;20247;-83
2022/06/19 11:38:59;;;;;;;13.48;8.45;;;41.10;36.40;;;;;;4996294;28;20639;-86
2022/06/19 11:41:34;;;;;;;15.48;9.73;;;40.70;35.40;;;;;;4997216;28;20208;-84
2022/06/19 11:44:19;;;;;;;11.43;9.70;;;40.60;38.00;;;;;;4997291;28;20188;-84
2022/06/19 11:46:50;;;;;;;14.10;8.88;;;41.40;37.10;;;;;;4994179;28;20181;-81
2022/06/19 11:49:36;;;;;;;14.77;9.55;;;42.00;35.00;;;;;;4996842;28;20216;-83
2022/06/19 11:52:36;;;;;;;14.27;8.30;;;42.00;34.70;;;;;;4994087;28;20184;-82
2022/06/19 11:55:02;;;;;;;19.85;7.63;;;42.40;34.40;;;;;;4981972;28;20212;-81
2022/06/19 11:57:31;;;;;;;13.52;6.03;;;42.50;34.10;;;;;;4982132;28;20687;-83
2022/06/19 12:00:01;;;;;;;12.88;6.07;;;42.30;33.20;;;;;;4995276;28;20826;-80
2022/06/19 12:02:53;;;;;;;17.40;7.07;;;41.80;33.90;;;;;;4995818;28;20196;-84
2022/06/19 12:05:34;;;;;;;11.80;6.93;;;41.60;33.20;;;;;;4994007;28;20268;-83
2022/06/19 12:08:18;;;;;;;16.02;6.88;;;41.20;34.20;;;;;;4994323;28;20727;-81
2022/06/19 12:10:57;;;;;;;18.40;6.03;;;41.30;34.00;;;;;;5004581;28;20203;-82
2022/06/19 12:13:30;;;;;;;16.27;7.13;;;41.10;33.80;;;;;;5001237;28;20199;-80
2022/06/19 12:16:32;;;;;;;14.85;7.50;;;40.90;33.80;;;;;;5000941;28;20276;-84
2022/06/19 12:19:22;;;;;;;12.80;7.38;;;41.30;34.10;;;;;;4990256;28;20209;-84
2022/06/19 12:21:59;;;;;;;15.48;7.43;;;41.50;32.60;;;;;;4981579;28;20447;-81
2022/06/19 12:24:41;;;;;;;14.82;6.72;;;41.60;33.40;;;;;;4977231;28;20185;-82
2022/06/19 12:27:12;;;;;;;15.85;7.60;;;42.00;34.20;;;;;;4999966;28;20285;-81
2022/06/19 12:29:50;;;;;;;16.77;6.93;;;42.40;33.50;;;;;;5009479;28;20190;-85
2022/06/19 12:32:38;;;;;;;16.13;6.43;;;42.60;33.30;;;;;;4998633;28;20223;-83
2022/06/19 12:35:20;;;;;;;17.58;6.70;;;42.50;33.00;;;;;;5005818;28;20196;-84
2022/06/19 12:37:49;;;;;;;13.82;6.43;;;42.30;33.00;;;;;;5001341;28;20283;-83
2022/06/19 12:40:21;;;;;;;14.50;6.50;;;42.30;33.70;;;;;;4996945;28;20184;-84
2022/06/19 12:42:54;;;;;;;12.02;6.15;;;42.10;32.00;;;;;;4997554;28;20191;-84
2022/06/19 12:45:45;;;;;;;18.65;6.57;;;42.50;33.10;;;;;;4989524;28;20281;-84
2022/06/19 12:48:46;;;;;;;15.07;6.72;;;42.30;32.00;;;;;;4980140;28;20197;-85
2022/06/19 12:51:38;;;;;;;15.20;5.75;;;42.20;32.20;;;;;;5004145;28;20198;-83
2022/06/19 12:54:26;;;;;;;12.57;6.00;;;42.90;31.00;;;;;;5001776;28;20292;-82
2022/06/19 12:57:23;;;;;;;20.35;6.10;;;43.10;31.60;;;;;;5001207;28;20580;-84
2022/06/19 13:00:23;;;;;;;14.85;6.07;;;43.20;32.40;;;;;;5001932;28;20184;-81
2022/06/19 13:03:28;;;;;;;12.07;6.78;;;43.60;31.90;;;;;;5001823;28;20176;-82